Aviation Digital Data Service (ADDS)

Output produced by METARs form (1714 UTC 03 December 2021)
found at http://www.aviationweather.gov/metar/data/
 
VTSB 031500Z 32003KT 8000 SCT020 25/24 Q1016 NOSIG
VTSB 031400Z 34003KT 290V350 8000 SCT020 25/24 Q1016 NOSIG
VTSB 031300Z 00000KT 8000 SCT020 25/24 Q1015 NOSIG
VTSB 031200Z 10004KT 070V130 8000 SCT020 25/24 Q1014 NOSIG
VTSB 031100Z 04009KT 9999 VCSH FEW018CB SCT020 25/23 Q1013 NOSIG
VTSB 031000Z 02011KT 9999 VCSH FEW018TCU SCT020 26/23 Q1012 NOSIG
VTSB 030900Z 04015KT 9999 SCT020 28/23 Q1012 NOSIG
VTSB 030800Z 04015KT 9999 SCT020 28/24 Q1011 NOSIG
VTSB 030700Z 05017KT 9999 FEW020 29/24 Q1012 NOSIG
VTSB 030600Z 04016KT 8000 SCT020 29/25 Q1013 NOSIG
VTSB 030500Z 05015KT 7000 FEW020 29/24 Q1014 NOSIG
VTSB 030400Z 03011KT 6000 SCT020 29/24 Q1015 NOSIG
VTSB 030300Z 02007KT 5000 BR FEW020 27/25 Q1015 NOSIG
VTSB 030200Z 01005KT 5000 BR FEW020 26/25 Q1015 NOSIG
VTSB 030100Z 34004KT 310V020 5000 BR FEW018 24/24 Q1015 NOSIG
VTSB 030000Z 00000KT 5000 BR SCT016 23/23 Q1014 NOSIG
VTSB 022300Z 34002KT 5000 BR FEW020 23/23 Q1013 NOSIG
VTSB 022200Z 00000KT 5000 BR FEW020 23/23 Q1012 NOSIG
TAF COR VTSB 031100Z 0312/0412 02008KT 9999 SCT020 
     TEMPO 0312/0315 4000 RA 
     BECMG 0320/0322 3000 BR BKN005 
     BECMG 0402/0404 9999 NSW FEW020